createdAt,value
2023-01-19T00:03:51.802Z,33.59
2023-01-19T00:08:34.095Z,38.3
2023-01-19T00:13:16.301Z,37.8
2023-01-19T00:17:58.678Z,36.3
2023-01-19T00:22:40.844Z,34.09
2023-01-19T00:27:23.214Z,32.59
2023-01-19T00:32:05.580Z,40.9
2023-01-19T00:36:47.590Z,34
2023-01-19T00:41:29.910Z,32.3
2023-01-19T00:46:12.371Z,40.4
2023-01-19T00:50:53.455Z,39.8
2023-01-19T00:55:35.944Z,38.8
2023-01-19T01:00:18.259Z,33.9
2023-01-19T01:05:00.491Z,36.09
2023-01-19T01:09:42.840Z,35.8
2023-01-19T01:14:25.008Z,42.6
2023-01-19T01:19:07.400Z,43.7
2023-01-19T01:23:49.721Z,47.1
2023-01-19T01:28:31.924Z,49.4
2023-01-19T01:33:14.224Z,61.4
2023-01-19T01:37:56.458Z,57.2
2023-01-19T01:42:38.677Z,55.8
2023-01-19T01:47:21.066Z,60.7
2023-01-19T01:52:02.465Z,62.2
2023-01-19T01:56:44.500Z,62.7
2023-01-19T02:01:26.919Z,65.3
2023-01-19T02:06:09.216Z,54.8
2023-01-19T02:10:51.546Z,62
2023-01-19T02:15:33.805Z,68.19
2023-01-19T02:20:16.125Z,68.8
2023-01-19T02:24:58.397Z,74.8
2023-01-19T02:29:40.719Z,75.9
2023-01-19T02:34:22.975Z,68
2023-01-19T02:39:05.191Z,59
2023-01-19T02:43:47.474Z,60
2023-01-19T02:48:29.793Z,68.19
2023-01-19T02:53:11.146Z,70.6
2023-01-19T02:57:53.273Z,68.19
2023-01-19T03:02:35.734Z,72.5
2023-01-19T03:07:18.053Z,73.6
2023-01-19T03:12:00.243Z,58.1
2023-01-19T03:16:42.576Z,60.4
2023-01-19T03:21:24.787Z,69.3
2023-01-19T03:26:07.176Z,75.69
2023-01-19T03:30:49.329Z,71.9
2023-01-19T03:35:31.668Z,63
2023-01-19T03:40:13.939Z,69.69
2023-01-19T03:44:56.130Z,61.3
2023-01-19T03:49:38.449Z,72.19
2023-01-19T03:54:19.861Z,67.9
2023-01-19T03:59:02.187Z,65.1
2023-01-19T04:03:44.266Z,67.5
2023-01-19T04:08:26.705Z,71.6
2023-01-19T04:13:08.835Z,72.4
2023-01-19T04:17:51.223Z,72.9
2023-01-19T04:22:33.574Z,72.69
2023-01-19T04:27:14.877Z,86.9
2023-01-19T04:31:56.123Z,77.3
2023-01-19T04:36:38.454Z,92.1
2023-01-19T04:41:20.798Z,95.2
2023-01-19T04:46:02.975Z,90.8
2023-01-19T04:55:27.374Z,95.2
2023-01-19T05:00:09.877Z,100.7
2023-01-19T05:04:52.201Z,103.9
2023-01-19T07:48:33.660Z,52.2
2023-01-19T07:53:15.919Z,55.9
2023-01-19T07:57:58.216Z,44.3
2023-01-19T08:02:40.438Z,47.9
2023-01-19T08:07:22.638Z,54.3
2023-01-19T08:12:04.898Z,52.8
2023-01-19T08:16:47.224Z,43.3
2023-01-19T08:21:29.448Z,44.2
2023-01-19T08:26:11.784Z,40.09
2023-01-19T08:30:53.998Z,39
2023-01-19T08:35:36.317Z,35.3
2023-01-19T08:40:18.644Z,42.6
2023-01-19T08:45:00.915Z,40.5
2023-01-19T08:49:43.211Z,42.6
2023-01-19T08:54:25.592Z,38
2023-01-19T08:59:07.784Z,38.09
2023-01-19T09:03:50.077Z,46.8
2023-01-19T09:08:32.292Z,35.9
2023-01-19T09:13:14.612Z,45.7
2023-01-19T09:17:56.883Z,24.1
2023-01-19T09:22:39.165Z,30.6
2023-01-19T09:27:21.489Z,27.6
2023-01-19T09:32:03.732Z,14.1
2023-01-19T09:36:46.031Z,20.1
2023-01-19T09:41:28.411Z,14.7
2023-01-19T09:46:10.586Z,16.29
2023-01-19T09:50:52.811Z,18.4
2023-01-19T09:55:35.146Z,21
2023-01-19T10:00:17.462Z,16
2023-01-19T10:04:59.694Z,17.5
2023-01-19T10:09:42.017Z,21
2023-01-19T10:14:24.227Z,16.7
2023-01-19T10:19:06.593Z,13.8
2023-01-19T10:28:31.120Z,13
2023-01-19T10:33:13.425Z,12.3
2023-01-19T10:37:55.771Z,12.5
2023-01-19T10:42:38.036Z,15.2
2023-01-19T10:47:20.202Z,8.7
2023-01-19T10:52:02.582Z,12.9
2023-01-19T10:56:44.751Z,10.9
2023-01-19T11:01:27.079Z,11.2
2023-01-19T11:06:09.396Z,12.2
2023-01-19T11:10:51.621Z,10.8
2023-01-19T11:15:33.958Z,11.6
2023-01-19T11:20:16.178Z,10.1
2023-01-19T11:24:58.525Z,9.89
2023-01-19T11:29:40.712Z,8
2023-01-19T11:34:23.061Z,7.9
2023-01-19T11:39:05.404Z,12.5
2023-01-19T11:43:47.585Z,8.6
2023-01-19T11:48:29.912Z,9.2
2023-01-19T11:53:12.137Z,9.2
2023-01-19T11:57:54.582Z,6
2023-01-19T12:02:36.795Z,7
2023-01-19T12:07:19.005Z,11.2
2023-01-19T12:12:01.386Z,6.3
2023-01-19T12:16:43.566Z,9.8
2023-01-19T12:21:25.886Z,5.1
2023-01-19T12:26:08.197Z,9.39
2023-01-19T12:30:50.439Z,8.89
2023-01-19T12:35:32.742Z,8.1
2023-01-19T12:40:14.968Z,5
2023-01-19T12:44:57.305Z,5
2023-01-19T12:49:39.517Z,7.3
2023-01-19T12:54:21.837Z,5.9
2023-01-19T12:59:04.167Z,8.6
2023-01-19T13:03:46.395Z,6
2023-01-19T13:08:28.713Z,6.8
2023-01-19T13:13:10.946Z,8.2
2023-01-19T13:17:53.268Z,6.1
2023-01-19T13:22:35.577Z,5.8
2023-01-19T13:27:17.800Z,9.3
2023-01-19T13:32:00.145Z,7.7
2023-01-19T13:36:42.350Z,4.19
2023-01-19T13:41:24.677Z,4.3
2023-01-19T13:46:06.997Z,6.1
2023-01-19T13:50:49.236Z,3.1
2023-01-19T13:55:31.553Z,5.3
2023-01-19T14:00:13.774Z,3.3
2023-01-19T14:04:56.101Z,4.3
2023-01-19T14:09:38.319Z,4
2023-01-19T14:14:20.647Z,6.5
2023-01-19T14:19:02.966Z,5
2023-01-19T14:23:45.195Z,3
2023-01-19T14:28:27.516Z,4.3
2023-01-19T14:33:09.745Z,2.9
2023-01-19T14:37:52.080Z,3.3
2023-01-19T14:42:34.294Z,3.2
2023-01-19T14:47:16.620Z,4.9
2023-01-19T14:51:58.990Z,6.8
2023-01-19T14:56:41.159Z,5.4
2023-01-19T15:01:23.483Z,9.89
2023-01-19T15:06:05.707Z,6
2023-01-19T15:10:48.034Z,7.6
2023-01-19T15:15:30.369Z,7.2
2023-01-19T15:20:12.583Z,8.1
2023-01-19T15:24:54.905Z,4.9
2023-01-19T15:29:37.131Z,9
2023-01-19T15:34:19.457Z,7.2
2023-01-19T15:39:01.684Z,8.5
2023-01-19T15:43:44.003Z,8.1
2023-01-19T15:48:26.329Z,5.6
2023-01-19T15:53:08.560Z,8.5
2023-01-19T15:57:50.879Z,7
2023-01-19T16:02:33.120Z,8.8
2023-01-19T16:07:15.425Z,5.9
2023-01-19T16:11:57.781Z,7.9
2023-01-19T16:16:39.972Z,8.8
2023-01-19T16:30:46.847Z,12.6
2023-01-19T16:35:29.168Z,11.3
2023-01-19T16:40:11.395Z,13.3
2023-01-19T16:44:53.719Z,14.2
2023-01-19T16:49:35.942Z,13.4
2023-01-19T16:54:18.319Z,10.3
2023-01-19T16:59:00.595Z,11.9
2023-01-19T17:03:42.820Z,9.3
2023-01-19T17:08:25.141Z,10.8
2023-01-19T17:13:07.369Z,9.3
2023-01-19T17:22:32.014Z,12.5
2023-01-19T17:27:14.244Z,17.79
2023-01-19T17:31:56.563Z,12
2023-01-19T17:36:38.807Z,14.9
2023-01-19T17:41:21.112Z,26.9
2023-01-19T17:50:45.665Z,12.5
2023-01-19T18:04:52.591Z,17.79
2023-01-19T18:09:34.854Z,15.9
2023-01-19T18:14:17.090Z,15.2
2023-01-19T18:18:59.422Z,20
2023-01-19T18:23:40.729Z,15.5
2023-01-19T18:28:22.964Z,19.29
2023-01-19T18:33:05.285Z,20.2
2023-01-19T18:37:47.527Z,19.6
2023-01-19T18:47:12.155Z,17.4
2023-01-19T18:51:54.378Z,20.5
2023-01-19T18:56:36.763Z,14.5
2023-01-19T19:01:18.932Z,14.7
2023-01-19T19:06:01.255Z,12.5
2023-01-19T19:10:43.582Z,11.5
2023-01-19T19:15:25.801Z,16.2
2023-01-19T19:20:08.131Z,11.8
2023-01-19T19:24:50.397Z,10.6
2023-01-19T19:29:32.717Z,14.2
2023-01-19T19:34:14.911Z,14.9
2023-01-19T19:38:57.237Z,17.79
2023-01-19T19:43:39.552Z,13.2
2023-01-19T19:48:21.807Z,12.3
2023-01-19T19:53:04.098Z,12.3
2023-01-19T19:57:45.425Z,13.4
2023-01-19T20:02:27.651Z,15.4
2023-01-19T20:07:08.974Z,15
2023-01-19T20:11:50.413Z,12.5
2023-01-19T20:16:32.841Z,17.1
2023-01-19T20:21:14.836Z,13.7
2023-01-19T20:25:57.168Z,14.4
2023-01-19T20:30:39.416Z,13.5
2023-01-19T20:35:21.728Z,13.7
2023-01-19T20:40:04.039Z,19
2023-01-19T20:44:46.266Z,16.6
2023-01-19T20:49:28.589Z,10.7
2023-01-19T20:54:10.813Z,14.6
2023-01-19T20:58:53.185Z,11.5
2023-01-19T21:03:35.467Z,9.8
2023-01-19T21:08:17.688Z,11.6
2023-01-19T21:12:59.020Z,12.5
2023-01-19T21:17:41.232Z,8.6
2023-01-19T21:22:23.563Z,11
2023-01-19T21:27:05.888Z,10.4
2023-01-19T21:31:48.128Z,13.2
2023-01-19T21:36:30.431Z,11.7
2023-01-19T21:45:54.993Z,11.6
2023-01-19T21:50:37.310Z,10.9
2023-01-19T21:55:19.531Z,13.7
2023-01-19T22:00:01.874Z,11
2023-01-19T22:04:44.084Z,9.39
2023-01-19T22:09:26.408Z,11.2
2023-01-19T22:14:07.738Z,13
2023-01-19T22:23:32.248Z,12
2023-01-19T22:28:14.574Z,11.8
2023-01-19T22:32:56.801Z,11.5
2023-01-19T22:37:39.153Z,13.2
2023-01-19T22:42:21.455Z,12.4
2023-01-19T22:47:03.721Z,16.5
2023-01-19T22:51:46.071Z,15.6
2023-01-19T22:56:28.257Z,17.6
2023-01-19T23:01:10.556Z,14.2
2023-01-19T23:05:52.864Z,13.3
2023-01-19T23:10:35.099Z,17.6
2023-01-19T23:15:16.428Z,17.4
2023-01-19T23:19:58.648Z,15.2
2023-01-19T23:24:40.976Z,17.2
2023-01-19T23:29:23.305Z,14.1
2023-01-19T23:34:05.524Z,15
2023-01-19T23:38:47.849Z,14.1
2023-01-19T23:43:30.085Z,15.3
2023-01-19T23:48:12.447Z,15.7
2023-01-19T23:52:54.721Z,15.6
2023-01-19T23:57:36.955Z,15.2
